Time;durP1;ratioP1;P1;durP2;ratioP2;P2;SDS_P1;SDS_P2;PMS_P1;PMS_P2;Temp;Humidity;BMP_temperature;BMP_pressure;BME280_temperature;BME280_humidity;BME280_pressure;Samples;Min_cycle;Max_cycle;Signal;HPM_P1;HPM_P2
2021/12/02 00:01:24;;;;;;;0.70;0.70;;;2.90;99.90;;;;;;4959977;28;20110;-88
2021/12/02 00:03:49;;;;;;;0.90;0.90;;;2.80;99.90;;;;;;4961855;28;20051;-87
2021/12/02 00:06:19;;;;;;;0.82;0.82;;;2.70;99.90;;;;;;4968788;28;20118;-87
2021/12/02 00:08:47;;;;;;;0.80;0.80;;;2.70;99.90;;;;;;4973513;28;20073;-87
2021/12/02 00:11:13;;;;;;;0.80;0.80;;;3.00;99.90;;;;;;4959988;28;20035;-87
2021/12/02 00:14:07;;;;;;;0.95;0.95;;;2.70;99.90;;;;;;4957867;28;20099;-87
2021/12/02 00:21:50;;;;;;;0.82;0.82;;;2.40;99.90;;;;;;4969814;28;19922;-88
2021/12/02 00:24:18;;;;;;;0.80;0.80;;;2.00;99.90;;;;;;4960416;28;20043;-88
2021/12/02 00:26:46;;;;;;;0.80;0.80;;;2.00;99.90;;;;;;4960425;28;20035;-86
2021/12/02 00:29:13;;;;;;;0.70;0.70;;;2.00;99.90;;;;;;4963977;28;20045;-87
2021/12/02 00:31:39;;;;;;;0.70;0.70;;;2.30;99.90;;;;;;4962698;28;20035;-87
2021/12/02 00:34:08;;;;;;;0.80;0.80;;;1.80;99.90;;;;;;4954893;28;20125;-87
2021/12/02 00:36:36;;;;;;;0.80;0.80;;;2.10;99.90;;;;;;4955472;28;20070;-87
2021/12/02 00:39:07;;;;;;;0.80;0.80;;;1.80;99.90;;;;;;4956220;28;20087;-88
2021/12/02 00:41:33;;;;;;;0.90;0.90;;;1.70;99.90;;;;;;4954301;28;20114;-87
2021/12/02 00:43:59;;;;;;;0.70;0.70;;;1.80;99.90;;;;;;4953418;28;20475;-88
2021/12/02 00:46:33;;;;;;;0.80;0.80;;;1.80;99.90;;;;;;4947506;28;20050;-87
2021/12/02 00:49:03;;;;;;;0.80;0.80;;;2.20;99.90;;;;;;4962285;28;20118;-88
2021/12/02 00:51:31;;;;;;;0.80;0.80;;;2.00;99.90;;;;;;4961155;28;20122;-87
2021/12/02 00:54:02;;;;;;;0.80;0.80;;;2.10;99.90;;;;;;4954375;28;20053;-87
2021/12/02 00:56:27;;;;;;;0.70;0.70;;;2.20;99.90;;;;;;4969134;28;20163;-87
2021/12/02 00:58:54;;;;;;;1.00;1.00;;;2.20;99.90;;;;;;4963329;28;20047;-87
2021/12/02 01:01:23;;;;;;;0.80;0.80;;;2.00;99.90;;;;;;4945052;28;20130;-87
2021/12/02 01:03:50;;;;;;;0.80;0.80;;;2.20;99.90;;;;;;4958181;28;20125;-87
2021/12/02 01:06:17;;;;;;;0.98;0.98;;;2.20;99.90;;;;;;4957317;28;20043;-87
2021/12/02 01:08:42;;;;;;;0.80;0.80;;;2.20;99.90;;;;;;4954471;29;20062;-87
2021/12/02 01:11:10;;;;;;;0.70;0.70;;;2.10;99.90;;;;;;4959372;28;20043;-86
2021/12/02 01:13:36;;;;;;;0.70;0.70;;;;;;;;;;4948888;28;20042;-87
2021/12/02 01:16:03;;;;;;;0.70;0.70;;;2.10;99.90;;;;;;4953228;28;20578;-87
2021/12/02 01:18:28;;;;;;;0.80;0.80;;;2.00;99.90;;;;;;4964265;28;20042;-87
2021/12/02 01:20:55;;;;;;;0.80;0.80;;;2.50;99.90;;;;;;4953964;28;20488;-87
2021/12/02 01:23:22;;;;;;;0.80;0.80;;;2.00;99.90;;;;;;4956717;28;20133;-88
2021/12/02 01:25:59;;;;;;;0.80;0.80;;;2.10;99.90;;;;;;4951963;28;20054;-88
2021/12/02 01:28:26;;;;;;;0.80;0.80;;;;;;;;;;4952800;28;20471;-88
2021/12/02 01:30:52;;;;;;;0.80;0.80;;;2.30;99.90;;;;;;4954833;28;20498;-88
2021/12/02 01:33:20;;;;;;;1.58;1.13;;;2.40;99.90;;;;;;4957840;28;20093;-88
2021/12/02 01:35:51;;;;;;;0.90;0.90;;;2.60;99.90;;;;;;4958802;28;20039;-88
2021/12/02 01:38:17;;;;;;;0.82;0.82;;;2.40;99.90;;;;;;4965577;28;20046;-88
2021/12/02 01:40:45;;;;;;;0.80;0.80;;;2.30;99.90;;;;;;4958400;28;20634;-88
2021/12/02 01:43:17;;;;;;;0.88;0.88;;;2.30;99.90;;;;;;4977158;28;20074;-88
2021/12/02 01:45:42;;;;;;;0.80;0.80;;;2.90;99.90;;;;;;4972793;28;20102;-89
2021/12/02 01:48:20;;;;;;;0.75;0.75;;;2.30;99.90;;;;;;4959262;28;20043;-88
2021/12/02 01:51:10;;;;;;;0.80;0.80;;;2.50;99.90;;;;;;4963471;28;20053;-88
2021/12/02 01:53:39;;;;;;;0.80;0.80;;;2.20;99.90;;;;;;4973763;28;20043;-87
2021/12/02 01:56:10;;;;;;;0.70;0.70;;;2.10;99.90;;;;;;4964676;28;20053;-88
2021/12/02 01:58:43;;;;;;;0.80;0.80;;;2.10;99.90;;;;;;4965989;28;20039;-88
2021/12/02 02:01:16;;;;;;;0.80;0.80;;;2.10;99.90;;;;;;4963660;28;20070;-88
2021/12/02 02:03:42;;;;;;;0.70;0.70;;;2.10;99.90;;;;;;4956202;28;20050;-88
2021/12/02 02:06:09;;;;;;;0.80;0.80;;;2.20;99.90;;;;;;4954720;28;20141;-88
2021/12/02 02:08:39;;;;;;;0.73;0.73;;;2.10;99.90;;;;;;4964683;28;20050;-88
2021/12/02 02:11:04;;;;;;;0.80;0.80;;;2.10;99.90;;;;;;4966953;28;20045;-87
2021/12/02 02:13:30;;;;;;;0.80;0.80;;;;;;;;;;4965999;28;20051;-86
2021/12/02 02:15:56;;;;;;;0.95;0.95;;;;;;;;;;4958697;28;20058;-87
2021/12/02 02:18:24;;;;;;;0.80;0.80;;;2.00;99.90;;;;;;4961329;28;20226;-87
2021/12/02 02:21:00;;;;;;;0.80;0.80;;;2.00;99.90;;;;;;4971762;28;20054;-87
2021/12/02 02:23:29;;;;;;;0.80;0.80;;;1.90;99.90;;;;;;4969131;28;20088;-88
2021/12/02 02:25:55;;;;;;;0.80;0.80;;;1.90;99.90;;;;;;4969120;28;20034;-87
2021/12/02 02:28:21;;;;;;;0.80;0.80;;;1.80;99.90;;;;;;4953441;28;20309;-88
2021/12/02 02:30:47;;;;;;;0.80;0.80;;;1.80;99.90;;;;;;4964329;28;20046;-88
2021/12/02 02:33:14;;;;;;;0.70;0.70;;;2.20;99.90;;;;;;4989489;28;20049;-88
2021/12/02 02:35:41;;;;;;;0.80;0.80;;;1.80;99.90;;;;;;4965228;28;20515;-88
2021/12/02 02:38:07;;;;;;;1.30;1.30;;;2.10;99.90;;;;;;4959522;28;20131;-88
2021/12/02 02:40:33;;;;;;;1.00;0.98;;;1.90;99.90;;;;;;4965158;28;20034;-87
2021/12/02 02:43:06;;;;;;;0.93;0.93;;;1.80;99.90;;;;;;4980407;28;20126;-87
2021/12/02 02:45:31;;;;;;;0.80;0.80;;;1.90;99.90;;;;;;4968082;28;20150;-88
2021/12/02 02:47:57;;;;;;;0.80;0.80;;;1.90;99.90;;;;;;4968748;28;20039;-87
2021/12/02 02:50:23;;;;;;;0.80;0.80;;;1.90;99.90;;;;;;4958754;28;20053;-88
2021/12/02 02:52:54;;;;;;;0.80;0.80;;;1.90;99.90;;;;;;4972538;28;20039;-86
2021/12/02 02:55:24;;;;;;;0.80;0.80;;;;;;;;;;4961948;28;20043;-86
2021/12/02 02:58:03;;;;;;;0.80;0.80;;;2.00;99.90;;;;;;4962307;28;20047;-87
2021/12/02 03:00:36;;;;;;;0.80;0.80;;;2.20;99.90;;;;;;4952888;28;20038;-87
2021/12/02 03:08:41;;;;;;;0.90;0.90;;;2.20;99.90;;;;;;4970259;28;20046;-88
2021/12/02 03:11:09;;;;;;;0.80;0.80;;;2.40;99.90;;;;;;4970643;28;20043;-87
2021/12/02 03:13:47;;;;;;;0.77;0.77;;;;;;;;;;4970700;28;20063;-85
2021/12/02 03:18:57;;;;;;;;;;;2.40;99.90;;;;;;4982514;28;20790;-86
2021/12/02 03:21:24;;;;;;;0.80;0.80;;;2.60;99.90;;;;;;4954542;28;19918;-86
2021/12/02 03:23:56;;;;;;;0.80;0.80;;;2.40;99.90;;;;;;4953579;28;20102;-88
2021/12/02 03:26:22;;;;;;;0.90;0.90;;;;;;;;;;4975767;28;20066;-88
2021/12/02 03:28:48;;;;;;;0.80;0.80;;;2.40;99.90;;;;;;4971306;28;20043;-88
2021/12/02 03:31:15;;;;;;;0.80;0.80;;;2.40;99.90;;;;;;4958852;28;20111;-88
2021/12/02 03:33:41;;;;;;;0.75;0.75;;;2.30;99.90;;;;;;4956538;28;20050;-88
2021/12/02 03:36:08;;;;;;;0.80;0.80;;;2.20;99.90;;;;;;4968048;28;20047;-88
2021/12/02 03:38:34;;;;;;;0.80;0.80;;;2.20;99.90;;;;;;4968827;28;20047;-88
2021/12/02 03:41:00;;;;;;;0.70;0.70;;;;;;;;;;4974493;28;20047;-88
2021/12/02 03:43:32;;;;;;;0.75;0.75;;;1.90;99.90;;;;;;4954922;28;20042;-88
2021/12/02 03:45:58;;;;;;;0.90;0.90;;;1.70;99.90;;;;;;4960620;28;20059;-88
2021/12/02 03:48:23;;;;;;;0.80;0.80;;;1.90;99.90;;;;;;4958007;28;20036;-88
2021/12/02 03:50:49;;;;;;;0.80;0.80;;;1.50;99.90;;;;;;4958817;28;20661;-87
2021/12/02 03:53:15;;;;;;;0.80;0.80;;;1.40;99.90;;;;;;4975762;28;20104;-88
2021/12/02 03:55:40;;;;;;;0.80;0.80;;;1.70;99.90;;;;;;4951904;29;20043;-89
2021/12/02 03:58:06;;;;;;;0.80;0.80;;;;;;;;;;4969720;28;20070;-88
2021/12/02 04:00:32;;;;;;;0.80;0.80;;;1.20;99.90;;;;;;4958429;28;20181;-89
2021/12/02 04:03:16;;;;;;;0.90;0.90;;;1.20;99.90;;;;;;4957761;28;20688;-90
2021/12/02 04:05:54;;;;;;;0.80;0.80;;;1.20;99.90;;;;;;4970303;28;20046;-88
2021/12/02 04:08:27;;;;;;;0.80;0.80;;;1.10;99.90;;;;;;4978132;28;20055;-87
2021/12/02 04:10:59;;;;;;;0.90;0.90;;;1.00;99.90;;;;;;4962461;28;20082;-88
2021/12/02 04:13:29;;;;;;;0.80;0.80;;;1.00;99.90;;;;;;4974347;28;20055;-88
2021/12/02 04:15:59;;;;;;;0.80;0.80;;;0.90;99.90;;;;;;4968522;28;20456;-88
2021/12/02 04:18:25;;;;;;;0.90;0.90;;;1.30;99.90;;;;;;4951516;28;20046;-88
2021/12/02 04:20:51;;;;;;;0.80;0.80;;;;;;;;;;4947746;29;20040;-87
2021/12/02 04:23:17;;;;;;;0.80;0.80;;;;;;;;;;4961759;28;20050;-87
2021/12/02 04:25:42;;;;;;;0.70;0.70;;;0.80;99.90;;;;;;4949639;28;20940;-87
2021/12/02 04:28:08;;;;;;;0.80;0.80;;;0.70;99.90;;;;;;4960597;28;20038;-88
2021/12/02 04:30:34;;;;;;;0.80;0.80;;;0.70;99.90;;;;;;4960326;28;20101;-89
2021/12/02 04:32:59;;;;;;;0.90;0.90;;;1.20;99.90;;;;;;4962916;28;20135;-89
2021/12/02 04:35:25;;;;;;;0.80;0.80;;;0.70;99.90;;;;;;4968052;28;20111;-88
2021/12/02 04:37:53;;;;;;;0.80;0.80;;;0.80;99.90;;;;;;4965204;28;20118;-87
2021/12/02 04:40:21;;;;;;;0.90;0.90;;;0.80;99.90;;;;;;4971491;28;20051;-87
2021/12/02 04:42:48;;;;;;;0.90;0.90;;;;;;;;;;4964536;28;20068;-87
2021/12/02 04:45:14;;;;;;;0.90;0.90;;;1.00;99.90;;;;;;4955338;28;20050;-87
2021/12/02 04:47:40;;;;;;;0.90;0.90;;;1.00;99.90;;;;;;4961714;28;20062;-86
2021/12/02 04:50:07;;;;;;;0.80;0.80;;;1.10;99.90;;;;;;4978926;28;20046;-86
2021/12/02 04:52:33;;;;;;;0.80;0.80;;;1.20;99.90;;;;;;4959494;28;20399;-87
2021/12/02 04:55:00;;;;;;;0.80;0.80;;;1.20;99.90;;;;;;4963736;28;20122;-86
2021/12/02 04:57:25;;;;;;;0.80;0.80;;;1.60;99.90;;;;;;4958274;28;20049;-87
2021/12/02 04:59:51;;;;;;;0.80;0.80;;;1.30;99.90;;;;;;4974242;28;20059;-88
2021/12/02 05:02:17;;;;;;;0.80;0.80;;;1.40;99.90;;;;;;4950165;29;20059;-88
2021/12/02 05:04:42;;;;;;;0.80;0.80;;;1.40;99.90;;;;;;4972426;28;20039;-88
2021/12/02 05:07:08;;;;;;;0.80;0.80;;;2.00;99.90;;;;;;4970906;28;20054;-88
2021/12/02 05:09:34;;;;;;;0.82;0.82;;;1.60;99.90;;;;;;4977994;28;20066;-87
2021/12/02 05:11:59;;;;;;;0.80;0.80;;;1.80;99.90;;;;;;4958835;28;20102;-88
2021/12/02 05:14:25;;;;;;;0.80;0.80;;;1.50;99.90;;;;;;4976866;28;20458;-88
2021/12/02 05:16:51;;;;;;;0.85;0.85;;;1.60;99.90;;;;;;4962117;28;20110;-88
2021/12/02 05:19:16;;;;;;;1.23;1.13;;;1.50;99.90;;;;;;4953434;28;20058;-88
2021/12/02 05:21:42;;;;;;;0.80;0.80;;;1.80;99.90;;;;;;4968037;28;20127;-88
2021/12/02 05:24:08;;;;;;;0.80;0.80;;;1.40;99.90;;;;;;4983131;28;20054;-88
2021/12/02 05:26:34;;;;;;;0.80;0.80;;;1.90;99.90;;;;;;4977597;28;20098;-89
2021/12/02 05:28:59;;;;;;;0.90;0.90;;;1.50;99.90;;;;;;4962924;29;20529;-87
2021/12/02 05:31:25;;;;;;;0.80;0.80;;;1.50;99.90;;;;;;4953654;28;20503;-88
2021/12/02 05:33:51;;;;;;;0.80;0.80;;;1.20;99.90;;;;;;4960873;28;20276;-88
2021/12/02 05:36:16;;;;;;;0.80;0.80;;;1.50;99.90;;;;;;4989518;28;20034;-88
2021/12/02 05:38:42;;;;;;;0.80;0.80;;;;;;;;;;4974319;28;20035;-88
2021/12/02 05:41:08;;;;;;;0.80;0.80;;;1.50;99.90;;;;;;4972642;28;20026;-88
2021/12/02 05:43:34;;;;;;;0.80;0.80;;;1.50;99.90;;;;;;4976523;28;20035;-88
2021/12/02 05:46:00;;;;;;;0.77;0.77;;;1.50;99.90;;;;;;4961441;28;20049;-88
2021/12/02 05:48:25;;;;;;;0.80;0.80;;;1.50;99.90;;;;;;4973437;28;20111;-87
2021/12/02 05:50:51;;;;;;;0.80;0.80;;;1.40;99.90;;;;;;4986330;28;20043;-87
2021/12/02 05:53:18;;;;;;;0.80;0.80;;;1.40;99.90;;;;;;4988247;28;20460;-87
2021/12/02 05:55:44;;;;;;;0.80;0.80;;;1.30;99.90;;;;;;4966532;28;20051;-88
2021/12/02 05:58:11;;;;;;;0.80;0.80;;;1.30;99.90;;;;;;4979435;28;20043;-87
2021/12/02 06:00:38;;;;;;;0.80;0.80;;;1.30;99.90;;;;;;4967061;28;20055;-86
2021/12/02 06:03:04;;;;;;;0.80;0.80;;;1.20;99.90;;;;;;4962666;28;20043;-87
2021/12/02 06:05:30;;;;;;;0.80;0.80;;;1.20;99.90;;;;;;4961943;28;20043;-86
2021/12/02 06:08:00;;;;;;;0.80;0.80;;;1.10;99.90;;;;;;4961520;28;20543;-87
2021/12/02 06:10:26;;;;;;;0.80;0.80;;;1.10;99.90;;;;;;4983385;28;20109;-87
2021/12/02 06:12:53;;;;;;;0.80;0.80;;;1.00;99.90;;;;;;4971626;28;20058;-87
2021/12/02 06:15:19;;;;;;;0.80;0.80;;;1.10;99.90;;;;;;4969335;28;20146;-86
2021/12/02 06:17:45;;;;;;;0.90;0.90;;;1.00;99.90;;;;;;4964256;28;20040;-86
2021/12/02 06:20:13;;;;;;;0.80;0.80;;;0.90;99.90;;;;;;4951388;28;20051;-86
2021/12/02 06:22:40;;;;;;;0.80;0.80;;;0.90;99.90;;;;;;4963091;28;20122;-87
2021/12/02 06:27:47;;;;;;;0.60;0.60;;;0.90;99.90;;;;;;4974464;28;20574;-87
2021/12/02 06:30:15;;;;;;;0.70;0.70;;;0.90;99.90;;;;;;4961570;28;20130;-86
2021/12/02 06:32:41;;;;;;;0.73;0.73;;;0.90;99.90;;;;;;4964680;28;20050;-86
2021/12/02 06:35:07;;;;;;;0.82;0.82;;;0.90;99.90;;;;;;4952537;28;20119;-86
2021/12/02 06:37:33;;;;;;;0.80;0.80;;;1.00;99.90;;;;;;4959544;28;20051;-85
2021/12/02 06:39:59;;;;;;;0.80;0.80;;;1.00;99.90;;;;;;4961804;28;20065;-86
2021/12/02 06:42:25;;;;;;;0.80;0.80;;;1.00;99.90;;;;;;4964502;28;20069;-86
2021/12/02 06:44:50;;;;;;;0.90;0.90;;;1.10;99.90;;;;;;4956641;28;20638;-86
2021/12/02 06:47:16;;;;;;;0.80;0.80;;;1.00;99.90;;;;;;4963568;28;20187;-85
2021/12/02 06:49:42;;;;;;;0.90;0.90;;;;;;;;;;4972128;28;20043;-87
2021/12/02 06:52:14;;;;;;;0.80;0.80;;;1.00;99.90;;;;;;4958633;28;20154;-86
2021/12/02 06:54:40;;;;;;;0.80;0.80;;;1.00;99.90;;;;;;4954519;28;20050;-87
2021/12/02 06:57:06;;;;;;;0.80;0.80;;;1.00;99.90;;;;;;4963046;28;20104;-86
2021/12/02 06:59:32;;;;;;;0.85;0.85;;;1.00;99.90;;;;;;4958649;28;20043;-86
2021/12/02 07:01:58;;;;;;;0.80;0.80;;;1.00;99.90;;;;;;4960008;28;20042;-86
2021/12/02 07:04:24;;;;;;;0.80;0.80;;;1.20;99.90;;;;;;4974080;28;20050;-85
2021/12/02 07:06:49;;;;;;;0.80;0.80;;;0.90;99.90;;;;;;4971785;28;20122;-86
2021/12/02 07:09:15;;;;;;;0.88;0.88;;;0.90;99.90;;;;;;4960269;28;20043;-86
2021/12/02 07:11:43;;;;;;;0.80;0.80;;;0.90;99.90;;;;;;4961673;28;20053;-86
2021/12/02 07:14:16;;;;;;;0.80;0.80;;;0.90;99.90;;;;;;4966236;28;20054;-86
2021/12/02 07:16:42;;;;;;;0.77;0.77;;;1.20;99.90;;;;;;4975499;28;20043;-86
2021/12/02 07:19:10;;;;;;;0.80;0.80;;;0.90;99.90;;;;;;4969321;28;20046;-85
2021/12/02 07:21:39;;;;;;;0.80;0.80;;;0.80;99.90;;;;;;4961915;28;20047;-83
2021/12/02 07:24:07;;;;;;;0.80;0.80;;;0.80;99.90;;;;;;4964137;28;20153;-84
2021/12/02 07:26:35;;;;;;;0.80;0.80;;;0.80;99.90;;;;;;4970012;28;20042;-84
2021/12/02 07:29:00;;;;;;;0.90;0.90;;;0.70;99.90;;;;;;4970883;28;20077;-83
2021/12/02 07:31:30;;;;;;;0.90;0.90;;;0.70;99.90;;;;;;4961428;28;20039;-83
2021/12/02 07:33:57;;;;;;;0.80;0.80;;;0.60;99.90;;;;;;4957801;28;20070;-83
2021/12/02 07:36:24;;;;;;;0.80;0.80;;;0.60;99.90;;;;;;4961250;28;20065;-84
2021/12/02 07:38:50;;;;;;;0.90;0.90;;;0.60;99.90;;;;;;4962072;28;20046;-85
2021/12/02 07:41:15;;;;;;;0.80;0.80;;;0.50;99.90;;;;;;4955908;28;21554;-85
2021/12/02 07:43:42;;;;;;;0.80;0.80;;;0.60;99.90;;;;;;4959810;28;20035;-84
2021/12/02 07:46:08;;;;;;;0.80;0.80;;;0.80;99.90;;;;;;4957589;28;20047;-84
2021/12/02 07:48:35;;;;;;;0.75;0.75;;;0.60;99.90;;;;;;4958488;28;20101;-84
2021/12/02 07:51:12;;;;;;;1.00;1.00;;;0.60;99.90;;;;;;4952062;28;20054;-85
2021/12/02 07:53:42;;;;;;;0.80;0.80;;;0.70;99.90;;;;;;4959232;28;20047;-85
2021/12/02 07:56:10;;;;;;;0.80;0.80;;;0.60;99.90;;;;;;4957506;28;20065;-85
2021/12/02 07:58:39;;;;;;;0.80;0.80;;;0.60;99.90;;;;;;4957402;28;20065;-85
2021/12/02 08:01:06;;;;;;;0.80;0.80;;;0.50;99.90;;;;;;4975209;28;20039;-85
2021/12/02 08:03:32;;;;;;;0.88;0.88;;;0.50;99.90;;;;;;4969578;28;20062;-85
2021/12/02 08:05:58;;;;;;;0.88;0.88;;;0.50;99.90;;;;;;4960912;28;20629;-85
2021/12/02 08:08:23;;;;;;;1.10;1.10;;;0.50;99.90;;;;;;4962862;28;20082;-85
2021/12/02 08:10:49;;;;;;;0.90;0.90;;;0.50;99.90;;;;;;4958447;28;20042;-85
2021/12/02 08:13:15;;;;;;;0.80;0.80;;;0.60;99.90;;;;;;4969301;28;20046;-85
2021/12/02 08:15:42;;;;;;;0.80;0.80;;;0.50;99.90;;;;;;4978185;28;20059;-85
2021/12/02 08:18:08;;;;;;;1.13;1.10;;;0.50;99.90;;;;;;4956027;28;20066;-85
2021/12/02 08:20:36;;;;;;;0.90;0.90;;;0.60;99.90;;;;;;4961468;28;20062;-86
2021/12/02 08:23:02;;;;;;;0.80;0.80;;;0.70;99.90;;;;;;4961846;28;20602;-85
2021/12/02 08:25:30;;;;;;;0.80;0.80;;;0.70;99.90;;;;;;4955107;28;20149;-85
2021/12/02 08:27:59;;;;;;;0.90;0.90;;;0.70;99.90;;;;;;4974345;28;20039;-84
2021/12/02 08:30:27;;;;;;;0.80;0.80;;;0.70;99.90;;;;;;4976710;28;20093;-85
2021/12/02 08:32:55;;;;;;;0.90;0.90;;;0.80;99.90;;;;;;4953843;28;20050;-84
2021/12/02 08:35:21;;;;;;;0.88;0.88;;;0.80;99.90;;;;;;4959308;28;20058;-84
2021/12/02 08:37:53;;;;;;;0.80;0.80;;;0.90;99.90;;;;;;4956869;28;20212;-84
2021/12/02 08:40:29;;;;;;;0.80;0.80;;;1.00;99.90;;;;;;4952457;28;20057;-85
2021/12/02 08:42:55;;;;;;;0.90;0.90;;;1.10;99.90;;;;;;4956973;28;20057;-84
2021/12/02 08:45:21;;;;;;;0.90;0.90;;;1.20;99.90;;;;;;4972642;28;20090;-84
2021/12/02 08:47:47;;;;;;;0.90;0.90;;;;;;;;;;4952092;28;20042;-84
2021/12/02 08:50:15;;;;;;;1.00;1.00;;;1.50;99.90;;;;;;4970566;28;20050;-85
2021/12/02 08:52:42;;;;;;;0.80;0.80;;;1.60;99.90;;;;;;4971975;28;20053;-85
2021/12/02 08:55:08;;;;;;;0.88;0.88;;;1.70;99.90;;;;;;4955778;28;20066;-86
2021/12/02 08:57:35;;;;;;;0.70;0.70;;;1.70;99.90;;;;;;4966705;28;20043;-86
2021/12/02 09:00:02;;;;;;;0.82;0.82;;;1.80;99.90;;;;;;4958745;28;20139;-86
2021/12/02 09:02:28;;;;;;;1.15;1.05;;;1.80;99.90;;;;;;4957443;28;20054;-87
2021/12/02 09:04:54;;;;;;;0.80;0.80;;;1.80;99.90;;;;;;4948179;28;20046;-85
2021/12/02 09:07:20;;;;;;;0.80;0.80;;;;;;;;;;4962119;28;20408;-86
2021/12/02 09:09:45;;;;;;;0.80;0.80;;;1.90;99.90;;;;;;4965127;28;20527;-87
2021/12/02 09:12:11;;;;;;;0.80;0.80;;;1.90;99.90;;;;;;4957340;28;20189;-86
2021/12/02 09:14:37;;;;;;;0.80;0.80;;;1.90;99.90;;;;;;4958988;28;20119;-86
2021/12/02 09:17:04;;;;;;;0.80;0.80;;;2.00;99.90;;;;;;4961093;28;20047;-86
2021/12/02 09:19:29;;;;;;;0.80;0.80;;;1.90;99.90;;;;;;4947698;28;20110;-84
2021/12/02 09:21:55;;;;;;;0.90;0.90;;;2.00;99.90;;;;;;4958659;28;20126;-86
2021/12/02 09:24:21;;;;;;;0.80;0.80;;;2.00;99.90;;;;;;4955851;28;20125;-85
2021/12/02 09:26:48;;;;;;;0.80;0.80;;;2.10;99.90;;;;;;4963371;28;20090;-84
2021/12/02 09:29:16;;;;;;;0.85;0.85;;;2.10;99.90;;;;;;4956068;28;20102;-85
2021/12/02 09:31:42;;;;;;;0.80;0.80;;;2.10;99.90;;;;;;4949034;28;20122;-84
2021/12/02 09:34:08;;;;;;;0.80;0.80;;;2.20;99.90;;;;;;4955602;29;20047;-86
2021/12/02 09:36:34;;;;;;;0.80;0.80;;;;;;;;;;4953237;28;20043;-87
2021/12/02 09:39:00;;;;;;;0.80;0.80;;;2.20;99.90;;;;;;4962360;28;20050;-86
2021/12/02 09:41:26;;;;;;;0.80;0.80;;;2.20;99.90;;;;;;4965741;28;20045;-87
2021/12/02 09:43:51;;;;;;;0.80;0.80;;;2.20;99.90;;;;;;4955985;28;20105;-85
2021/12/02 09:46:17;;;;;;;0.80;0.80;;;2.60;99.90;;;;;;4952574;28;20114;-86
2021/12/02 09:48:44;;;;;;;0.80;0.80;;;2.20;99.90;;;;;;4955808;28;20035;-87
2021/12/02 09:51:13;;;;;;;0.80;0.80;;;2.90;99.90;;;;;;4954598;28;20065;-89
2021/12/02 09:53:50;;;;;;;0.80;0.80;;;;;;;;;;4974395;28;20047;-88
2021/12/02 09:56:20;;;;;;;0.80;0.80;;;2.70;99.90;;;;;;4953263;28;20050;-88
2021/12/02 09:58:46;;;;;;;0.80;0.80;;;2.70;99.90;;;;;;4960438;28;20082;-89
2021/12/02 10:01:14;;;;;;;0.73;0.73;;;2.80;99.90;;;;;;4958455;28;20392;-88
2021/12/02 10:03:43;;;;;;;0.80;0.80;;;2.80;99.90;;;;;;4951952;28;20109;-84
2021/12/02 10:06:21;;;;;;;0.80;0.80;;;2.80;99.90;;;;;;4961355;28;20047;-85
2021/12/02 10:09:06;;;;;;;0.80;0.80;;;2.70;99.90;;;;;;4968672;28;20070;-84
2021/12/02 10:11:37;;;;;;;0.70;0.70;;;2.60;99.90;;;;;;4945152;28;20067;-85
2021/12/02 10:14:23;;;;;;;0.80;0.80;;;2.30;99.90;;;;;;4950551;28;20069;-84
2021/12/02 10:16:52;;;;;;;0.80;0.80;;;2.10;99.90;;;;;;4954050;28;20043;-84
2021/12/02 10:19:21;;;;;;;0.80;0.80;;;1.90;99.90;;;;;;4965320;28;20094;-83
2021/12/02 10:24:23;;;;;;;0.80;0.80;;;2.10;99.90;;;;;;4975419;28;20066;-85
2021/12/02 10:27:03;;;;;;;0.77;0.77;;;1.70;99.90;;;;;;4968755;28;20043;-85
2021/12/02 10:29:33;;;;;;;0.90;0.90;;;1.60;99.90;;;;;;4964847;28;20046;-84
2021/12/02 10:32:13;;;;;;;0.80;0.80;;;1.70;99.90;;;;;;4973123;28;20467;-83
2021/12/02 10:35:05;;;;;;;0.82;0.82;;;1.70;99.90;;;;;;4969943;28;20050;-84
2021/12/02 10:37:36;;;;;;;0.80;0.80;;;1.70;99.90;;;;;;4960668;28;20047;-84
2021/12/02 10:40:07;;;;;;;0.80;0.80;;;1.70;99.90;;;;;;4976831;28;20055;-86
2021/12/02 10:42:34;;;;;;;0.73;0.73;;;1.80;99.90;;;;;;4958041;28;20094;-84
2021/12/02 10:45:03;;;;;;;0.88;0.88;;;1.70;99.90;;;;;;4971870;28;20113;-83
2021/12/02 10:47:29;;;;;;;0.90;0.90;;;1.70;99.90;;;;;;4970226;28;20114;-83
2021/12/02 10:50:15;;;;;;;0.80;0.80;;;1.70;99.90;;;;;;4972305;28;20069;-83
2021/12/02 10:52:41;;;;;;;0.90;0.90;;;1.70;99.90;;;;;;4976777;28;20126;-84
2021/12/02 10:55:10;;;;;;;0.80;0.80;;;1.70;99.90;;;;;;4950796;28;20063;-85
2021/12/02 10:57:47;;;;;;;0.80;0.80;;;1.70;99.90;;;;;;4969312;28;20091;-84
2021/12/02 11:00:40;;;;;;;0.80;0.80;;;1.70;99.90;;;;;;4970818;28;20090;-84
2021/12/02 11:03:14;;;;;;;0.80;0.80;;;1.70;99.90;;;;;;4974067;28;20127;-84
2021/12/02 11:05:47;;;;;;;0.80;0.80;;;1.70;99.90;;;;;;4948211;28;20062;-84
2021/12/02 11:08:16;;;;;;;0.80;0.80;;;1.70;99.90;;;;;;4965191;28;20047;-84
2021/12/02 11:10:46;;;;;;;0.80;0.80;;;1.60;99.90;;;;;;4963699;28;20171;-85
2021/12/02 11:13:19;;;;;;;0.90;0.90;;;1.70;99.90;;;;;;4967213;28;20384;-84
2021/12/02 11:15:45;;;;;;;0.80;0.80;;;1.60;99.90;;;;;;4963362;28;20043;-84
2021/12/02 11:18:12;;;;;;;0.90;0.90;;;1.60;99.90;;;;;;4968569;28;20394;-83
2021/12/02 11:20:46;;;;;;;0.75;0.75;;;1.60;99.90;;;;;;4974008;28;20069;-83
2021/12/02 11:23:29;;;;;;;0.80;0.80;;;1.60;99.90;;;;;;4972264;28;20047;-84
2021/12/02 11:25:57;;;;;;;0.80;0.80;;;1.60;99.90;;;;;;4949637;28;20053;-83
2021/12/02 11:28:30;;;;;;;0.90;0.90;;;1.60;99.90;;;;;;4956118;28;20121;-84
2021/12/02 11:30:56;;;;;;;0.90;0.90;;;1.60;99.90;;;;;;4966112;28;20058;-84
2021/12/02 11:33:30;;;;;;;0.90;0.90;;;1.70;99.90;;;;;;4958427;28;20046;-83
2021/12/02 11:35:55;;;;;;;0.93;0.93;;;1.80;99.90;;;;;;4966744;28;20475;-82
2021/12/02 11:38:25;;;;;;;0.80;0.80;;;1.80;99.90;;;;;;4964488;28;20079;-83
2021/12/02 11:40:54;;;;;;;0.80;0.80;;;1.80;99.90;;;;;;4967134;28;20063;-84
2021/12/02 11:43:34;;;;;;;0.82;0.82;;;1.90;99.90;;;;;;4950524;28;20039;-85
2021/12/02 11:46:02;;;;;;;0.80;0.80;;;1.90;99.90;;;;;;4957641;28;20061;-85
2021/12/02 11:48:30;;;;;;;0.90;0.90;;;1.90;99.90;;;;;;4970492;28;20038;-84
2021/12/02 11:51:01;;;;;;;0.80;0.80;;;2.00;99.90;;;;;;4961144;28;20066;-83
2021/12/02 11:53:27;;;;;;;0.90;0.90;;;2.00;99.90;;;;;;4957966;28;20082;-84
2021/12/02 11:56:07;;;;;;;0.90;0.90;;;2.10;99.90;;;;;;4955522;28;20087;-83
2021/12/02 11:58:33;;;;;;;0.75;0.75;;;1.90;99.90;;;;;;4957038;28;20050;-82
2021/12/02 12:00:59;;;;;;;0.80;0.80;;;1.80;99.90;;;;;;4957302;28;20089;-84
2021/12/02 12:03:39;;;;;;;0.80;0.80;;;1.80;99.90;;;;;;4972331;28;20053;-84
2021/12/02 12:06:22;;;;;;;0.80;0.80;;;1.70;99.90;;;;;;4959125;28;20097;-85
2021/12/02 12:08:50;;;;;;;0.80;0.80;;;1.60;99.90;;;;;;4975382;28;20039;-86
2021/12/02 12:11:23;;;;;;;0.80;0.80;;;1.60;99.90;;;;;;4954630;28;20043;-83
2021/12/02 12:13:53;;;;;;;1.45;1.35;;;1.50;99.90;;;;;;4977213;28;20052;-83
2021/12/02 12:16:27;;;;;;;0.80;0.80;;;1.40;99.90;;;;;;4953003;28;20070;-84
2021/12/02 12:18:55;;;;;;;0.90;0.90;;;1.40;99.90;;;;;;4973148;28;20039;-84
2021/12/02 12:21:39;;;;;;;0.80;0.80;;;1.50;99.90;;;;;;4960413;28;20057;-83
2021/12/02 12:24:06;;;;;;;;;;;1.70;99.90;;;;;;4956863;28;20077;-83
2021/12/02 12:26:42;;;;;;;0.80;0.80;;;1.70;99.90;;;;;;4957585;28;19972;-84
2021/12/02 12:29:09;;;;;;;0.80;0.80;;;1.80;99.90;;;;;;4949626;28;20047;-84
2021/12/02 12:31:52;;;;;;;0.68;0.68;;;2.00;99.90;;;;;;4959440;28;20034;-83
2021/12/02 12:36:57;;;;;;;0.88;0.88;;;2.20;99.90;;;;;;4961753;28;20291;-84
2021/12/02 12:39:25;;;;;;;0.80;0.80;;;2.20;99.90;;;;;;4949581;28;20034;-83
2021/12/02 12:42:13;;;;;;;0.80;0.80;;;2.20;99.90;;;;;;4957081;28;20111;-84
2021/12/02 12:44:58;;;;;;;0.80;0.80;;;2.20;99.90;;;;;;4958165;28;20081;-83
2021/12/02 12:47:49;;;;;;;1.00;1.00;;;2.00;99.90;;;;;;4958883;28;20038;-83
2021/12/02 12:50:24;;;;;;;0.90;0.90;;;2.00;99.90;;;;;;4964067;28;20039;-83
2021/12/02 12:53:18;;;;;;;0.80;0.80;;;2.00;99.90;;;;;;4961805;28;20484;-84
2021/12/02 12:55:51;;;;;;;0.82;0.82;;;2.00;99.90;;;;;;4945337;28;20050;-84
2021/12/02 12:58:21;;;;;;;1.17;1.13;;;1.90;99.90;;;;;;4962173;28;20050;-83
2021/12/02 13:00:50;;;;;;;0.80;0.80;;;2.00;99.90;;;;;;4968681;28;20042;-85
2021/12/02 13:03:28;;;;;;;0.90;0.90;;;1.90;99.90;;;;;;4959674;28;20045;-86
2021/12/02 13:06:06;;;;;;;0.70;0.70;;;1.90;99.90;;;;;;4974906;28;20126;-84
2021/12/02 13:08:37;;;;;;;0.90;0.90;;;1.90;99.90;;;;;;4961927;28;20280;-86
2021/12/02 13:11:24;;;;;;;0.80;0.80;;;1.90;99.90;;;;;;4954957;28;20038;-83
2021/12/02 13:13:51;;;;;;;0.80;0.80;;;1.90;99.90;;;;;;4968767;28;20074;-83
2021/12/02 13:16:18;;;;;;;0.80;0.80;;;1.90;99.90;;;;;;4962121;28;20108;-85
2021/12/02 13:18:59;;;;;;;0.90;0.90;;;2.00;99.90;;;;;;4953480;28;20043;-84
2021/12/02 13:21:31;;;;;;;0.80;0.80;;;2.00;99.90;;;;;;4952812;28;20089;-84
2021/12/02 13:24:08;;;;;;;0.73;0.73;;;2.00;99.90;;;;;;4953641;28;20050;-84
2021/12/02 13:26:45;;;;;;;0.88;0.88;;;2.10;99.90;;;;;;4972673;28;20047;-84
2021/12/02 13:29:16;;;;;;;0.80;0.80;;;2.10;99.90;;;;;;4970490;28;20043;-85
2021/12/02 13:31:53;;;;;;;0.80;0.80;;;2.10;99.90;;;;;;4955136;28;20058;-84
2021/12/02 13:34:21;;;;;;;0.80;0.80;;;2.20;99.90;;;;;;4947954;28;20043;-84